createdAt,value
2018-08-04T00:00:16.825Z,82.50
2018-08-04T00:02:45.946Z,81.12
2018-08-04T00:05:15.114Z,81.43
2018-08-04T00:07:44.856Z,81.21
2018-08-04T00:10:18.458Z,81.70
2018-08-04T00:12:51.921Z,82.76
2018-08-04T00:15:21.472Z,82.93
2018-08-04T00:17:50.830Z,83.77
2018-08-04T00:20:19.925Z,84.17
2018-08-04T00:22:48.649Z,83.47
2018-08-04T00:25:18.286Z,82.75
2018-08-04T00:27:47.386Z,83.62
2018-08-04T00:30:16.529Z,83.71
2018-08-04T00:32:45.621Z,84.89
2018-08-04T00:35:15.466Z,85.09
2018-08-04T00:37:44.585Z,83.86
2018-08-04T00:40:13.995Z,83.49
2018-08-04T00:42:43.505Z,83.58
2018-08-04T00:45:12.851Z,84.01
2018-08-04T00:47:42.551Z,84.87
2018-08-04T00:50:11.846Z,84.65
2018-08-04T00:52:40.969Z,85.40
2018-08-04T00:55:10.110Z,86.21
2018-08-04T00:57:39.219Z,85.07
2018-08-04T01:00:09.128Z,85.60
2018-08-04T01:02:38.234Z,86.36
2018-08-04T01:05:07.442Z,87.75
2018-08-04T01:07:36.538Z,86.72
2018-08-04T01:10:06.087Z,86.75
2018-08-04T01:12:35.233Z,88.23
2018-08-04T01:15:05.044Z,88.23
2018-08-04T01:17:34.194Z,87.63
2018-08-04T01:20:05.558Z,88.04
2018-08-04T01:22:36.674Z,88.59
2018-08-04T01:25:07.886Z,88.52
2018-08-04T01:27:37.834Z,89.25
2018-08-04T01:30:07.457Z,90.01
2018-08-04T01:32:36.521Z,90.07
2018-08-04T01:35:06.041Z,89.73
2018-08-04T01:37:35.167Z,90.42
2018-08-04T01:40:05.813Z,91.35
2018-08-04T01:42:34.901Z,91.71
2018-08-04T01:45:04.065Z,92.16
2018-08-04T01:47:33.145Z,92.76
2018-08-04T01:50:02.274Z,93.38
2018-08-04T01:52:31.415Z,92.73
2018-08-04T01:55:00.518Z,93.27
2018-08-04T01:57:29.590Z,92.55
2018-08-04T01:59:58.916Z,92.44
2018-08-04T02:02:28.014Z,92.59
2018-08-04T02:04:57.578Z,92.12
2018-08-04T02:07:26.738Z,91.53
2018-08-04T02:09:55.898Z,91.89
2018-08-04T02:12:25.023Z,90.94
2018-08-04T02:14:55.007Z,90.17
2018-08-04T02:17:24.316Z,90.09
2018-08-04T02:19:53.454Z,89.75
2018-08-04T02:22:22.527Z,90.70
2018-08-04T02:24:53.273Z,90.65
2018-08-04T02:27:22.402Z,91.65
2018-08-04T02:29:51.670Z,92.00
2018-08-04T02:32:20.770Z,93.39
2018-08-04T02:34:50.059Z,93.84
2018-08-04T02:37:19.174Z,94.04
2018-08-04T02:39:48.243Z,94.97
2018-08-04T02:42:17.350Z,94.13
2018-08-04T02:44:46.486Z,93.36
2018-08-04T02:47:16.375Z,93.02
2018-08-04T02:49:45.534Z,94.61
2018-08-04T02:52:14.631Z,95.17
2018-08-04T02:54:44.452Z,95.29
2018-08-04T02:57:13.559Z,94.93
2018-08-04T02:59:42.677Z,94.88
2018-08-04T03:02:11.749Z,95.26
2018-08-04T03:04:40.952Z,94.93
2018-08-04T03:07:10.059Z,94.09
2018-08-04T03:09:39.887Z,95.08
2018-08-04T03:12:08.962Z,96.33
2018-08-04T03:14:38.070Z,97.37
2018-08-04T03:17:07.254Z,97.01
2018-08-04T03:19:36.950Z,97.45
2018-08-04T03:22:07.270Z,96.66
2018-08-04T03:24:36.520Z,95.46
2018-08-04T03:27:06.289Z,96.00
2018-08-04T03:29:35.028Z,95.90
2018-08-04T03:32:04.250Z,94.30
2018-08-04T03:34:33.321Z,94.36
2018-08-04T03:37:03.219Z,93.70
2018-08-04T03:39:32.318Z,92.92
2018-08-04T03:42:01.414Z,93.58
2018-08-04T03:44:30.505Z,93.18
2018-08-04T03:47:00.440Z,93.89
2018-08-04T03:49:29.562Z,94.33
2018-08-04T03:51:58.639Z,95.26
2018-08-04T03:54:28.534Z,95.55
2018-08-04T03:56:57.633Z,95.24
2018-08-04T03:59:27.525Z,95.67
2018-08-04T04:01:56.665Z,95.51
2018-08-04T04:04:26.570Z,95.25
2018-08-04T04:06:55.625Z,95.35
2018-08-04T04:09:24.754Z,95.27
2018-08-04T04:11:53.827Z,95.81
2018-08-04T04:14:22.902Z,96.03
2018-08-04T04:16:52.682Z,96.84
2018-08-04T04:19:21.745Z,97.01
2018-08-04T04:21:50.814Z,97.01
2018-08-04T04:24:20.149Z,96.63
2018-08-04T04:26:48.902Z,97.54
2018-08-04T04:29:17.989Z,96.74
2018-08-04T04:31:47.135Z,97.20
2018-08-04T04:34:16.441Z,96.92
2018-08-04T04:36:45.559Z,97.33
2018-08-04T04:39:14.630Z,96.56
2018-08-04T04:41:43.750Z,95.75
2018-08-04T04:44:12.898Z,94.80
2018-08-04T04:46:42.257Z,93.01
2018-08-04T04:49:13.195Z,92.24
2018-08-04T04:51:43.294Z,90.51
2018-08-04T04:54:12.415Z,87.56
2018-08-04T04:56:41.511Z,85.49
2018-08-04T04:59:10.605Z,81.73
2018-08-04T05:01:39.694Z,81.19
2018-08-04T05:04:08.759Z,78.99
2018-08-04T05:06:37.878Z,78.14
2018-08-04T05:09:08.797Z,76.82
2018-08-04T05:11:37.902Z,76.95
2018-08-04T05:14:06.978Z,76.22
2018-08-04T05:16:36.070Z,72.90
2018-08-04T05:19:05.192Z,71.78
2018-08-04T05:21:34.336Z,70.75
2018-08-04T05:24:04.158Z,69.06
2018-08-04T05:26:33.278Z,67.72
2018-08-04T05:29:02.466Z,66.61
2018-08-04T05:31:31.717Z,65.60
2018-08-04T05:34:00.987Z,66.75
2018-08-04T05:36:30.433Z,66.20
2018-08-04T05:38:59.522Z,64.50
2018-08-04T05:41:28.630Z,65.58
2018-08-04T05:43:57.705Z,64.25
2018-08-04T05:46:27.726Z,64.65
2018-08-04T05:48:57.613Z,62.02
2018-08-04T05:51:26.329Z,61.92
2018-08-04T05:53:55.808Z,60.84
2018-08-04T05:56:25.134Z,59.60
2018-08-04T05:58:54.607Z,61.65
2018-08-04T06:01:23.747Z,61.89
2018-08-04T06:03:53.750Z,60.07
2018-08-04T06:06:22.841Z,60.12
2018-08-04T06:08:52.782Z,59.31
2018-08-04T06:11:21.865Z,57.44
2018-08-04T06:13:51.426Z,55.40
2018-08-04T06:16:20.531Z,53.65
2018-08-04T06:18:49.837Z,50.96
2018-08-04T06:21:19.890Z,52.68
2018-08-04T06:23:49.099Z,51.83
2018-08-04T06:26:18.180Z,52.28
2018-08-04T06:28:48.103Z,49.09
2018-08-04T06:31:16.769Z,47.87
2018-08-04T06:33:46.202Z,48.60
2018-08-04T06:36:15.354Z,49.05
2018-08-04T06:38:44.430Z,48.81
2018-08-04T06:41:13.509Z,51.80
2018-08-04T06:43:42.670Z,48.25
2018-08-04T06:46:11.825Z,46.18
2018-08-04T06:48:40.750Z,43.19
2018-08-04T06:51:09.885Z,44.38
2018-08-04T06:53:38.969Z,43.49
2018-08-04T06:56:08.050Z,42.72
2018-08-04T06:58:37.177Z,43.19
2018-08-04T07:01:06.290Z,39.36
2018-08-04T07:03:35.370Z,40.00
2018-08-04T07:06:04.533Z,40.13
2018-08-04T07:08:33.627Z,41.89
2018-08-04T07:11:03.469Z,40.58
2018-08-04T07:13:32.593Z,42.34
2018-08-04T07:16:01.691Z,43.26
2018-08-04T07:18:31.578Z,43.78
2018-08-04T07:21:01.702Z,41.75
2018-08-04T07:23:31.641Z,38.41
2018-08-04T07:26:00.714Z,36.40
2018-08-04T07:28:30.466Z,36.87
2018-08-04T07:30:59.795Z,34.39
2018-08-04T07:33:28.899Z,32.02
2018-08-04T07:35:58.058Z,34.01
2018-08-04T07:38:27.177Z,34.86
2018-08-04T07:40:56.272Z,35.13
2018-08-04T07:43:25.887Z,34.96
2018-08-04T07:45:54.975Z,34.58
2018-08-04T07:48:24.102Z,34.18
2018-08-04T07:50:53.939Z,35.52
2018-08-04T07:53:23.018Z,34.35
2018-08-04T07:55:52.169Z,31.61
2018-08-04T07:58:21.254Z,32.21
2018-08-04T08:00:50.336Z,33.30
2018-08-04T08:03:20.297Z,33.04
2018-08-04T08:05:49.355Z,32.02
2018-08-04T08:08:18.461Z,32.27
2018-08-04T08:10:47.892Z,31.38
2018-08-04T08:13:15.547Z,31.33
2018-08-04T08:15:44.222Z,31.35
2018-08-04T08:18:13.094Z,30.72
2018-08-04T08:20:42.219Z,28.94
2018-08-04T08:23:11.349Z,28.91
2018-08-04T08:25:45.773Z,27.51
2018-08-04T08:28:14.897Z,25.75
2018-08-04T08:30:44.389Z,25.38
2018-08-04T08:33:13.708Z,23.20
2018-08-04T08:35:43.956Z,22.51
2018-08-04T08:38:13.647Z,21.49
2018-08-04T08:40:44.257Z,21.32
2018-08-04T08:43:13.491Z,20.07
2018-08-04T08:45:43.498Z,19.24
2018-08-04T08:48:12.617Z,18.69
2018-08-04T08:50:41.799Z,18.98
2018-08-04T08:53:11.015Z,19.02
2018-08-04T08:55:40.218Z,19.41
2018-08-04T08:58:09.350Z,20.43
2018-08-04T09:00:38.447Z,21.65
2018-08-04T09:03:08.432Z,20.93
2018-08-04T09:05:37.554Z,21.29
2018-08-04T09:08:07.417Z,20.52
2018-08-04T09:10:36.498Z,23.13
2018-08-04T09:13:05.682Z,20.49
2018-08-04T09:15:35.595Z,18.62
2018-08-04T09:18:04.659Z,20.21
2018-08-04T09:20:33.745Z,19.79
2018-08-04T09:23:02.942Z,19.99
2018-08-04T09:25:32.691Z,21.88
2018-08-04T09:28:01.804Z,20.39
2018-08-04T09:30:30.915Z,20.44
2018-08-04T09:33:00.294Z,20.70
2018-08-04T09:35:29.449Z,22.76
2018-08-04T09:37:58.954Z,21.51
2018-08-04T09:40:28.115Z,20.20
2018-08-04T09:43:00.739Z,20.90
2018-08-04T09:45:30.392Z,18.91
2018-08-04T09:47:59.518Z,20.22
2018-08-04T09:50:28.649Z,18.59
2018-08-04T09:52:58.499Z,19.61
2018-08-04T09:55:27.585Z,18.93
2018-08-04T09:57:57.574Z,17.30
2018-08-04T10:00:33.458Z,18.17
2018-08-04T10:03:03.205Z,18.29
2018-08-04T10:05:31.197Z,17.00
2018-08-04T10:08:00.423Z,16.94
2018-08-04T10:10:30.419Z,18.34
2018-08-04T10:13:00.361Z,18.96
2018-08-04T10:15:29.760Z,17.48
2018-08-04T10:17:59.443Z,17.49
2018-08-04T10:20:28.645Z,17.30
2018-08-04T10:22:57.943Z,16.48
2018-08-04T10:25:28.015Z,15.37
2018-08-04T10:27:57.264Z,17.06
2018-08-04T10:30:26.397Z,19.46
2018-08-04T10:32:56.347Z,19.96
2018-08-04T10:35:25.748Z,18.20
2018-08-04T10:37:55.123Z,16.69
2018-08-04T10:40:24.367Z,15.97
2018-08-04T10:42:53.642Z,16.35
2018-08-04T10:45:23.528Z,16.11
2018-08-04T10:47:53.107Z,15.46
2018-08-04T10:50:21.866Z,14.67
2018-08-04T10:52:50.966Z,14.31
2018-08-04T10:55:20.709Z,15.71
2018-08-04T10:57:49.793Z,15.51
2018-08-04T11:00:18.881Z,14.51
2018-08-04T11:02:47.999Z,14.69
2018-08-04T11:05:17.078Z,15.37
2018-08-04T11:07:46.148Z,13.91
2018-08-04T11:10:15.266Z,15.34
2018-08-04T11:12:44.374Z,16.25
2018-08-04T11:15:14.260Z,15.04
2018-08-04T11:17:43.366Z,13.11
2018-08-04T11:20:12.662Z,12.96
2018-08-04T11:22:41.827Z,13.25
2018-08-04T11:25:11.589Z,13.98
2018-08-04T11:27:41.226Z,13.33
2018-08-04T11:30:10.686Z,12.92
2018-08-04T11:32:40.437Z,14.91
2018-08-04T11:35:09.539Z,14.97
2018-08-04T11:37:38.678Z,14.48
2018-08-04T11:40:07.745Z,14.53
2018-08-04T11:42:37.582Z,14.00
2018-08-04T11:45:06.798Z,14.44
2018-08-04T11:47:35.674Z,12.99
2018-08-04T11:50:04.976Z,12.56
2018-08-04T11:52:34.793Z,15.79
2018-08-04T11:55:04.197Z,17.21
2018-08-04T11:57:33.902Z,13.96
2018-08-04T12:00:03.651Z,15.10
2018-08-04T12:02:32.766Z,18.98
2018-08-04T12:05:01.883Z,18.57
2018-08-04T12:07:30.978Z,17.03
2018-08-04T12:10:00.050Z,14.02
2018-08-04T12:12:29.208Z,14.05
2018-08-04T12:14:58.603Z,14.32
2018-08-04T12:17:27.929Z,15.34
2018-08-04T12:19:57.350Z,12.98
2018-08-04T12:22:26.718Z,11.45
2018-08-04T12:24:54.664Z,12.21
2018-08-04T12:27:23.953Z,12.83
2018-08-04T12:29:53.218Z,12.95
2018-08-04T12:32:21.940Z,14.71
2018-08-04T12:34:51.062Z,15.25
2018-08-04T12:37:20.138Z,14.11
2018-08-04T12:39:49.267Z,15.67
2018-08-04T12:42:18.364Z,12.13
2018-08-04T12:44:47.421Z,11.63
2018-08-04T12:47:16.534Z,11.07
2018-08-04T12:49:45.672Z,9.70
2018-08-04T12:52:14.761Z,11.26
2018-08-04T12:54:43.894Z,13.24
2018-08-04T12:57:13.690Z,14.59
2018-08-04T12:59:43.035Z,15.51
2018-08-04T13:02:12.270Z,16.83
2018-08-04T13:04:41.761Z,16.71
2018-08-04T13:07:12.019Z,16.47
2018-08-04T13:09:41.782Z,12.61
2018-08-04T13:12:11.681Z,13.54
2018-08-04T13:14:41.671Z,14.42
2018-08-04T13:17:11.538Z,13.89
2018-08-04T13:19:41.413Z,12.41
2018-08-04T13:22:10.741Z,12.69
2018-08-04T13:24:40.660Z,12.69
2018-08-04T13:27:10.345Z,14.36
2018-08-04T13:29:40.296Z,13.43
2018-08-04T13:32:09.581Z,12.88
2018-08-04T13:34:39.246Z,16.02
2018-08-04T13:37:11.324Z,14.77
2018-08-04T13:39:42.013Z,16.50
2018-08-04T13:42:11.113Z,17.06
2018-08-04T13:44:39.912Z,17.21
2018-08-04T13:47:08.618Z,15.13
2018-08-04T13:49:37.782Z,17.77
2018-08-04T13:52:07.257Z,18.65
2018-08-04T13:54:36.341Z,17.14
2018-08-04T13:57:05.945Z,14.95
2018-08-04T13:59:35.098Z,15.03
2018-08-04T14:02:04.151Z,14.99
2018-08-04T14:04:33.225Z,14.41
2018-08-04T14:07:02.350Z,13.75
2018-08-04T14:09:32.341Z,13.56
2018-08-04T14:12:01.492Z,15.91
2018-08-04T14:14:30.581Z,16.74
2018-08-04T14:17:00.398Z,15.95
2018-08-04T14:19:29.741Z,14.80
2018-08-04T14:21:58.998Z,15.95
2018-08-04T14:24:28.313Z,16.72
2018-08-04T14:26:56.322Z,13.87
2018-08-04T14:29:25.573Z,13.55
2018-08-04T14:31:54.762Z,11.60
2018-08-04T14:34:23.865Z,14.15
2018-08-04T14:36:52.998Z,15.53
2018-08-04T14:39:22.138Z,14.45
2018-08-04T14:41:50.993Z,16.33
2018-08-04T14:44:20.263Z,17.92
2018-08-04T14:46:49.576Z,16.35
2018-08-04T14:49:19.575Z,16.06
2018-08-04T14:51:50.306Z,16.30
2018-08-04T14:54:19.625Z,17.20
2018-08-04T14:56:48.756Z,17.72
2018-08-04T14:59:18.508Z,17.92
2018-08-04T15:01:47.633Z,17.94
2018-08-04T15:04:16.822Z,17.23
2018-08-04T15:06:45.923Z,19.78
2018-08-04T15:09:14.692Z,19.29
2018-08-04T15:11:43.766Z,18.87
2018-08-04T15:14:13.661Z,19.21
2018-08-04T15:16:42.485Z,18.86
2018-08-04T15:19:11.570Z,17.92
2018-08-04T15:21:40.691Z,17.81
2018-08-04T15:24:10.067Z,16.66
2018-08-04T15:26:39.142Z,20.02
2018-08-04T15:29:08.321Z,19.77
2018-08-04T15:31:38.139Z,20.53
2018-08-04T15:34:06.829Z,21.82
2018-08-04T15:36:36.466Z,22.35
2018-08-04T15:39:08.034Z,21.36
2018-08-04T15:41:37.150Z,22.38
2018-08-04T15:44:06.277Z,22.55
2018-08-04T15:46:35.494Z,21.24
2018-08-04T15:49:05.689Z,20.29
2018-08-04T15:51:35.054Z,20.88
2018-08-04T15:54:05.051Z,21.64
2018-08-04T15:56:34.626Z,21.17
2018-08-04T15:59:03.998Z,20.29
2018-08-04T16:01:33.954Z,21.26
2018-08-04T16:04:03.844Z,20.69
2018-08-04T16:06:33.202Z,21.85
2018-08-04T16:09:01.845Z,20.79
2018-08-04T16:11:30.963Z,20.47
2018-08-04T16:14:00.030Z,21.36
2018-08-04T16:16:29.126Z,22.15
2018-08-04T16:18:58.229Z,23.48
2018-08-04T16:21:27.321Z,21.84
2018-08-04T16:23:56.522Z,22.74
2018-08-04T16:26:25.654Z,23.99
2018-08-04T16:28:54.739Z,24.37
2018-08-04T16:31:23.874Z,24.63
2018-08-04T16:33:52.953Z,26.07
2018-08-04T16:36:22.286Z,26.94
2018-08-04T16:38:51.750Z,26.74
2018-08-04T16:41:21.067Z,27.44
2018-08-04T16:43:51.270Z,26.82
2018-08-04T16:46:21.378Z,26.23
2018-08-04T16:48:50.477Z,26.82
2018-08-04T16:51:19.678Z,26.16
2018-08-04T16:53:48.810Z,26.94
2018-08-04T16:56:18.425Z,26.99
2018-08-04T16:58:47.553Z,26.20
2018-08-04T17:01:17.031Z,27.66
2018-08-04T17:03:46.133Z,27.66
2018-08-04T17:06:15.298Z,27.80
2018-08-04T17:08:44.434Z,26.71
2018-08-04T17:11:13.532Z,26.73
2018-08-04T17:13:42.617Z,26.57
2018-08-04T17:16:11.761Z,28.02
2018-08-04T17:18:40.870Z,27.45
2018-08-04T17:21:10.677Z,27.33
2018-08-04T17:23:40.138Z,28.72
2018-08-04T17:26:09.805Z,28.81
2018-08-04T17:28:39.750Z,28.12
2018-08-04T17:31:09.573Z,28.24
2018-08-04T17:33:38.986Z,28.88
2018-08-04T17:36:08.482Z,28.67
2018-08-04T17:38:37.579Z,28.68
2018-08-04T17:41:06.726Z,29.37
2018-08-04T17:43:35.841Z,30.08
2018-08-04T17:46:05.198Z,29.22
2018-08-04T17:48:34.691Z,30.45
2018-08-04T17:51:03.430Z,29.97
2018-08-04T17:53:32.766Z,30.51
2018-08-04T17:56:01.598Z,30.60
2018-08-04T17:58:30.887Z,30.84
2018-08-04T18:01:00.003Z,30.51
2018-08-04T18:03:29.496Z,30.30
2018-08-04T18:05:59.897Z,30.72
2018-08-04T18:08:29.378Z,30.99
2018-08-04T18:10:58.695Z,31.49
2018-08-04T18:13:28.410Z,31.40
2018-08-04T18:15:57.978Z,32.29
2018-08-04T18:18:27.057Z,32.63
2018-08-04T18:20:56.319Z,32.52
2018-08-04T18:23:26.242Z,32.98
2018-08-04T18:25:55.933Z,33.86
2018-08-04T18:28:25.603Z,34.64
2018-08-04T18:30:55.226Z,34.53
2018-08-04T18:33:25.013Z,35.20
2018-08-04T18:35:55.171Z,35.25
2018-08-04T18:38:24.465Z,36.15
2018-08-04T18:40:54.039Z,36.17
2018-08-04T18:43:23.319Z,36.50
2018-08-04T18:45:53.536Z,36.41
2018-08-04T18:48:23.032Z,36.78
2018-08-04T18:50:52.906Z,37.24
2018-08-04T18:53:22.606Z,37.64
2018-08-04T18:55:51.703Z,37.81
2018-08-04T18:58:20.805Z,37.88
2018-08-04T19:00:49.937Z,38.50
2018-08-04T19:03:19.290Z,38.44
2018-08-04T19:05:48.614Z,38.99
2018-08-04T19:08:17.329Z,39.20
2018-08-04T19:10:46.438Z,40.04
2018-08-04T19:13:16.430Z,40.07
2018-08-04T19:15:46.392Z,40.79
2018-08-04T19:18:16.235Z,42.78
2018-08-04T19:20:46.123Z,44.10
2018-08-04T19:23:17.476Z,43.29
2018-08-04T19:25:46.850Z,44.53
2018-08-04T19:28:16.769Z,44.63
2018-08-04T19:30:46.658Z,44.67
2018-08-04T19:33:16.861Z,45.63
2018-08-04T19:35:45.950Z,46.50
2018-08-04T19:38:15.610Z,45.25
2018-08-04T19:40:44.719Z,45.37
2018-08-04T19:43:14.582Z,46.06
2018-08-04T19:45:43.368Z,45.64
2018-08-04T19:48:12.534Z,46.16
2018-08-04T19:50:41.728Z,47.43
2018-08-04T19:53:10.806Z,47.06
2018-08-04T19:55:39.958Z,46.71
2018-08-04T19:58:09.018Z,46.33
2018-08-04T20:00:38.126Z,47.94
2018-08-04T20:03:07.254Z,47.68
2018-08-04T20:05:36.414Z,48.10
2018-08-04T20:08:05.576Z,47.62
2018-08-04T20:10:35.023Z,49.04
2018-08-04T20:13:04.386Z,46.81
2018-08-04T20:15:33.674Z,46.83
2018-08-04T20:18:09.698Z,47.34
2018-08-04T20:20:38.774Z,49.54
2018-08-04T20:23:07.913Z,48.86
2018-08-04T20:25:36.877Z,49.08
2018-08-04T20:28:06.261Z,50.48
2018-08-04T20:30:35.598Z,50.76
2018-08-04T20:33:05.513Z,51.12
2018-08-04T20:35:34.904Z,50.61
2018-08-04T20:38:04.846Z,51.04
2018-08-04T20:40:34.514Z,52.99
2018-08-04T20:43:04.465Z,51.62
2018-08-04T20:45:33.598Z,53.75
2018-08-04T20:48:03.406Z,53.28
2018-08-04T20:50:32.743Z,53.51
2018-08-04T20:53:02.139Z,53.48
2018-08-04T20:55:31.507Z,54.96
2018-08-04T20:58:01.143Z,54.55
2018-08-04T21:00:40.606Z,55.45
2018-08-04T21:03:10.638Z,54.96
2018-08-04T21:05:40.602Z,56.07
2018-08-04T21:08:09.742Z,57.23
2018-08-04T21:10:38.823Z,56.99
2018-08-04T21:13:08.314Z,56.32
2018-08-04T21:15:38.233Z,56.52
2018-08-04T21:18:08.153Z,57.60
2018-08-04T21:20:38.034Z,56.76
2018-08-04T21:23:07.960Z,57.09
2018-08-04T21:25:37.854Z,57.84
2018-08-04T21:28:08.624Z,58.27
2018-08-04T21:30:38.710Z,58.79
2018-08-04T21:33:07.881Z,58.31
2018-08-04T21:35:36.976Z,58.57
2018-08-04T21:38:06.599Z,59.63
2018-08-04T21:40:35.695Z,59.92
2018-08-04T21:43:05.555Z,60.14
2018-08-04T21:45:34.641Z,59.86
2018-08-04T21:48:05.418Z,60.41
2018-08-04T21:50:34.527Z,60.52
2018-08-04T21:53:03.623Z,60.39
2018-08-04T21:55:33.007Z,60.70
2018-08-04T21:58:02.641Z,61.08
2018-08-04T22:00:32.164Z,61.09
2018-08-04T22:03:02.472Z,62.33
2018-08-04T22:05:31.983Z,61.86
2018-08-04T22:08:18.039Z,61.95
2018-08-04T22:10:47.098Z,62.43
2018-08-04T22:13:16.768Z,62.85
2018-08-04T22:15:45.882Z,63.15
2018-08-04T22:18:15.011Z,62.78
2018-08-04T22:20:44.111Z,64.03
2018-08-04T22:23:14.058Z,63.98
2018-08-04T22:25:43.138Z,64.00
2018-08-04T22:28:12.219Z,64.11
2018-08-04T22:30:42.155Z,65.62
2018-08-04T22:33:11.254Z,65.29
2018-08-04T22:35:41.182Z,65.27
2018-08-04T22:38:10.266Z,65.06
2018-08-04T22:40:39.329Z,65.88
2018-08-04T22:43:09.403Z,66.15
2018-08-04T22:46:07.728Z,66.61
2018-08-04T22:48:37.206Z,66.74
2018-08-04T22:51:06.902Z,67.94
2018-08-04T22:53:36.370Z,68.10
2018-08-04T22:56:05.772Z,68.35
2018-08-04T22:58:35.014Z,67.33
2018-08-04T23:01:03.678Z,67.02
2018-08-04T23:03:32.770Z,67.21
2018-08-04T23:06:01.849Z,68.47
2018-08-04T23:08:30.970Z,67.93
2018-08-04T23:11:00.058Z,68.50
2018-08-04T23:13:29.182Z,69.26
2018-08-04T23:15:59.005Z,68.56
2018-08-04T23:18:28.154Z,69.10
2018-08-04T23:20:57.276Z,69.02
2018-08-04T23:23:26.405Z,70.82
2018-08-04T23:25:55.854Z,70.13
2018-08-04T23:28:24.941Z,70.68
2018-08-04T23:30:54.018Z,70.97
2018-08-04T23:33:23.111Z,71.59
2018-08-04T23:35:52.554Z,70.93
2018-08-04T23:38:21.627Z,71.54
2018-08-04T23:40:50.698Z,70.47
2018-08-04T23:43:20.245Z,70.59
2018-08-04T23:45:49.337Z,70.81
2018-08-04T23:48:18.577Z,70.81
2018-08-04T23:50:47.888Z,71.06
2018-08-04T23:53:17.407Z,71.78
2018-08-04T23:55:46.622Z,73.19
2018-08-04T23:58:15.808Z,72.92
